createdAt,value
2018-05-25T00:00:09.823Z,98000.77
2018-05-25T00:02:38.802Z,97995.41
2018-05-25T00:05:07.847Z,98000.81
2018-05-25T00:07:36.859Z,98001.98
2018-05-25T00:10:05.826Z,97989.78
2018-05-25T00:12:34.836Z,97984.30
2018-05-25T00:15:03.851Z,97986.30
2018-05-25T00:17:32.092Z,97989.51
2018-05-25T00:20:00.312Z,97985.08
2018-05-25T00:22:28.551Z,97991.52
2018-05-25T00:24:56.773Z,97998.19
2018-05-25T00:27:25.075Z,97994.33
2018-05-25T00:29:53.311Z,98002.21
2018-05-25T00:32:21.565Z,97994.31
2018-05-25T00:34:49.819Z,97989.50
2018-05-25T00:37:18.064Z,97997.20
2018-05-25T00:39:47.075Z,97990.38
2018-05-25T00:42:16.046Z,97998.23
2018-05-25T00:44:45.095Z,97996.22
2018-05-25T00:47:13.331Z,97994.50
2018-05-25T00:49:41.556Z,97991.14
2018-05-25T00:52:09.885Z,97992.08
2018-05-25T00:54:38.088Z,97984.85
2018-05-25T00:57:06.370Z,97989.78
2018-05-25T00:59:34.646Z,97986.56
2018-05-25T01:02:02.888Z,97986.48
2018-05-25T01:04:31.151Z,97986.48
2018-05-25T01:06:59.333Z,97989.59
2018-05-25T01:09:27.634Z,97989.73
2018-05-25T01:11:55.893Z,97987.33
2018-05-25T01:14:24.135Z,97990.00
2018-05-25T01:16:52.375Z,97985.31
2018-05-25T01:19:20.627Z,97976.08
2018-05-25T01:21:49.626Z,97981.84
2018-05-25T01:24:18.651Z,97979.84
2018-05-25T01:26:46.898Z,97980.09
2018-05-25T01:29:15.161Z,97979.27
2018-05-25T01:31:43.424Z,97983.00
2018-05-25T01:34:11.678Z,97984.42
2018-05-25T01:36:39.885Z,97990.05
2018-05-25T01:39:08.171Z,97983.36
2018-05-25T01:41:37.187Z,97982.69
2018-05-25T01:44:06.218Z,97982.28
2018-05-25T01:46:34.459Z,97987.19
2018-05-25T01:49:02.711Z,97981.16
2018-05-25T01:51:30.930Z,97985.17
2018-05-25T01:53:59.210Z,97985.17
2018-05-25T01:56:27.465Z,97991.03
2018-05-25T01:58:55.708Z,97990.75
2018-05-25T02:01:24.724Z,97990.88
2018-05-25T02:03:53.689Z,97988.20
2018-05-25T02:06:22.741Z,97985.66
2018-05-25T02:08:51.746Z,97975.73
2018-05-25T02:11:20.755Z,97981.98
2018-05-25T02:13:49.809Z,97984.38
2018-05-25T02:16:19.518Z,97984.09
2018-05-25T02:18:47.756Z,97978.72
2018-05-25T02:21:16.023Z,97975.08
2018-05-25T02:23:44.259Z,97980.55
2018-05-25T02:26:12.518Z,97970.09
2018-05-25T02:28:40.768Z,97966.89
2018-05-25T02:31:09.028Z,97969.25
2018-05-25T02:33:37.275Z,97964.72
2018-05-25T02:36:05.530Z,97960.33
2018-05-25T02:38:33.813Z,97967.55
2018-05-25T02:41:02.761Z,97962.72
2018-05-25T02:43:31.043Z,97964.72
2018-05-25T02:45:59.311Z,97959.61
2018-05-25T02:48:27.555Z,97959.86
2018-05-25T02:50:55.835Z,97964.27
2018-05-25T02:53:24.080Z,97963.42
2018-05-25T02:55:52.329Z,97958.45
2018-05-25T02:58:20.572Z,97953.09
2018-05-25T03:00:48.847Z,97955.23
2018-05-25T03:03:17.085Z,97954.80
2018-05-25T03:05:46.116Z,97967.75
2018-05-25T03:08:14.376Z,97964.31
2018-05-25T03:10:43.988Z,97966.86
2018-05-25T03:13:12.227Z,97966.05
2018-05-25T03:15:40.475Z,97960.18
2018-05-25T03:18:09.474Z,97965.36
2018-05-25T03:20:38.493Z,97966.66
2018-05-25T03:23:07.502Z,97970.91
2018-05-25T03:25:36.532Z,97966.30
2018-05-25T03:28:04.782Z,97965.20
2018-05-25T03:30:33.828Z,97964.52
2018-05-25T03:33:02.068Z,97974.84
2018-05-25T03:35:30.314Z,97970.67
2018-05-25T03:37:58.590Z,97974.68
2018-05-25T03:40:26.830Z,97975.89
2018-05-25T03:42:55.065Z,97974.84
2018-05-25T03:45:23.291Z,97980.87
2018-05-25T03:47:51.554Z,97981.00
2018-05-25T03:50:19.799Z,97979.13
2018-05-25T03:52:48.775Z,97979.53
2018-05-25T03:55:17.816Z,97985.00
2018-05-25T03:57:46.834Z,97988.45
2018-05-25T04:00:32.815Z,97990.83
2018-05-25T04:03:01.076Z,97987.80
2018-05-25T04:05:29.317Z,97989.74
2018-05-25T04:07:58.357Z,97994.33
2018-05-25T04:10:26.604Z,97993.27
2018-05-25T04:12:55.634Z,97994.20
2018-05-25T04:15:23.888Z,97991.94
2018-05-25T04:17:52.950Z,97988.94
2018-05-25T04:20:21.204Z,97984.53
2018-05-25T04:22:50.235Z,97988.30
2018-05-25T04:25:18.486Z,97989.23
2018-05-25T04:27:47.518Z,97991.94
2018-05-25T04:30:15.763Z,97982.74
2018-05-25T04:32:44.000Z,97983.27
2018-05-25T04:35:12.286Z,97984.13
2018-05-25T04:37:40.547Z,97988.70
2018-05-25T04:40:09.576Z,97986.34
2018-05-25T04:42:37.850Z,97981.42
2018-05-25T04:45:06.816Z,97991.06
2018-05-25T04:47:35.877Z,97992.41
2018-05-25T04:50:04.123Z,98002.03
2018-05-25T04:52:32.441Z,97995.54
2018-05-25T04:55:01.410Z,98002.58
2018-05-25T04:57:30.466Z,97994.58
2018-05-25T04:59:58.752Z,98002.52
2018-05-25T05:02:26.984Z,98002.30
2018-05-25T05:04:55.288Z,98009.54
2018-05-25T05:07:23.491Z,98003.37
2018-05-25T05:09:51.747Z,97999.75
2018-05-25T05:12:19.987Z,97998.77
2018-05-25T05:14:49.000Z,98002.80
2018-05-25T05:17:18.003Z,97997.77
2018-05-25T05:19:47.015Z,97999.58
2018-05-25T05:22:15.251Z,98001.19
2018-05-25T05:24:43.511Z,98008.78
2018-05-25T05:27:11.800Z,98006.72
2018-05-25T05:29:40.797Z,98012.80
2018-05-25T05:32:09.023Z,98008.55
2018-05-25T05:34:37.286Z,98006.08
2018-05-25T05:37:05.519Z,98010.31
2018-05-25T05:39:33.759Z,98007.84
2018-05-25T05:42:02.014Z,98005.16
2018-05-25T05:44:31.012Z,98015.91
2018-05-25T05:47:00.004Z,98005.84
2018-05-25T05:49:28.271Z,98005.80
2018-05-25T05:51:56.495Z,98010.20
2018-05-25T05:54:24.785Z,98008.62
2018-05-25T05:56:53.019Z,98011.58
2018-05-25T05:59:21.272Z,98005.81
2018-05-25T06:01:50.236Z,98012.55
2018-05-25T06:04:19.330Z,98022.51
2018-05-25T06:06:48.291Z,98018.50
2018-05-25T06:09:17.319Z,98020.13
2018-05-25T06:11:45.560Z,98026.00
2018-05-25T06:14:13.816Z,98029.72
2018-05-25T06:16:42.153Z,98029.42
2018-05-25T06:19:10.387Z,98037.44
2018-05-25T06:21:38.678Z,98031.47
2018-05-25T06:24:06.902Z,98033.44
2018-05-25T06:26:35.158Z,98041.67
2018-05-25T06:29:03.387Z,98036.88
2018-05-25T06:31:31.647Z,98045.86
2018-05-25T06:34:00.650Z,98055.77
2018-05-25T06:36:28.942Z,98045.78
2018-05-25T06:38:57.192Z,98039.16
2018-05-25T06:41:26.219Z,98041.48
2018-05-25T06:43:55.178Z,98048.67
2018-05-25T06:46:23.412Z,98046.80
2018-05-25T06:48:51.684Z,98043.58
2018-05-25T06:51:19.952Z,98048.56
2018-05-25T06:53:49.057Z,98049.42
2018-05-25T06:56:17.333Z,98051.59
2018-05-25T06:58:45.539Z,98045.19
2018-05-25T07:01:13.871Z,98046.35
2018-05-25T07:03:42.078Z,98048.63
2018-05-25T07:06:11.148Z,98046.45
2018-05-25T07:08:39.381Z,98049.98
2018-05-25T07:11:07.623Z,98042.47
2018-05-25T07:13:35.849Z,98051.48
2018-05-25T07:16:04.109Z,98052.86
2018-05-25T07:18:32.393Z,98054.59
2018-05-25T07:21:00.614Z,98060.13
2018-05-25T07:23:29.641Z,98056.73
2018-05-25T07:25:57.898Z,98051.64
2018-05-25T07:28:26.162Z,98062.00
2018-05-25T07:30:54.440Z,98058.98
2018-05-25T07:33:22.753Z,98059.41
2018-05-25T07:35:51.762Z,98058.96
2018-05-25T07:38:20.027Z,98058.63
2018-05-25T07:40:49.041Z,98056.94
2018-05-25T07:43:17.307Z,98060.48
2018-05-25T07:45:46.320Z,98062.73
2018-05-25T07:48:15.366Z,98054.72
2018-05-25T07:50:43.603Z,98055.31
2018-05-25T07:53:11.883Z,98052.66
2018-05-25T07:55:40.130Z,98051.47
2018-05-25T07:58:08.391Z,98051.02
2018-05-25T08:00:37.415Z,98047.25
2018-05-25T08:03:05.679Z,98050.91
2018-05-25T08:05:34.691Z,98054.35
2018-05-25T08:08:03.717Z,98056.77
2018-05-25T08:10:32.755Z,98055.41
2018-05-25T08:13:00.995Z,98053.73
2018-05-25T08:15:30.012Z,98050.70
2018-05-25T08:17:59.056Z,98053.34
2018-05-25T08:20:27.308Z,98054.60
2018-05-25T08:22:55.571Z,98055.33
2018-05-25T08:25:24.588Z,98052.95
2018-05-25T08:27:53.614Z,98050.65
2018-05-25T08:30:21.940Z,98048.59
2018-05-25T08:32:50.114Z,98047.69
2018-05-25T08:35:18.367Z,98047.14
2018-05-25T08:37:47.390Z,98053.58
2018-05-25T08:40:15.627Z,98046.23
2018-05-25T08:42:43.898Z,98047.82
2018-05-25T08:45:12.143Z,98049.16
2018-05-25T08:47:40.362Z,98052.64
2018-05-25T08:50:08.611Z,98051.63
2018-05-25T08:52:36.953Z,98050.11
2018-05-25T08:55:05.223Z,98047.25
2018-05-25T08:57:33.481Z,98055.17
2018-05-25T09:00:02.495Z,98054.09
2018-05-25T09:02:31.517Z,98054.06
2018-05-25T09:04:59.755Z,98052.10
2018-05-25T09:07:28.016Z,98053.62
2018-05-25T09:09:56.291Z,98058.61
2018-05-25T09:12:24.532Z,98052.49
2018-05-25T09:14:52.795Z,98058.37
2018-05-25T09:17:21.003Z,98057.50
2018-05-25T09:19:49.306Z,98052.94
2018-05-25T09:22:18.323Z,98060.88
2018-05-25T09:24:47.314Z,98055.04
2018-05-25T09:27:15.587Z,98051.59
2018-05-25T09:29:43.851Z,98053.61
2018-05-25T09:32:12.082Z,98049.75
2018-05-25T09:34:41.120Z,98057.08
2018-05-25T09:37:09.363Z,98057.98
2018-05-25T09:39:37.607Z,98056.10
2018-05-25T09:42:06.725Z,98054.28
2018-05-25T09:44:35.019Z,98055.87
2018-05-25T09:47:03.251Z,98051.91
2018-05-25T09:49:32.275Z,98055.80
2018-05-25T09:52:00.519Z,98060.98
2018-05-25T09:54:28.787Z,98060.53
2018-05-25T09:57:01.619Z,98054.98
2018-05-25T09:59:29.871Z,98052.87
2018-05-25T10:01:58.160Z,98054.03
2018-05-25T10:04:26.434Z,98054.88
2018-05-25T10:06:54.670Z,98057.48
2018-05-25T10:09:22.941Z,98051.70
2018-05-25T10:11:51.191Z,98050.31
2018-05-25T10:14:19.447Z,98047.16
2018-05-25T10:16:47.728Z,98053.30
2018-05-25T10:19:15.931Z,98047.07
2018-05-25T10:21:44.182Z,98051.78
2018-05-25T10:24:13.226Z,98046.18
2018-05-25T10:26:42.261Z,98049.89
2018-05-25T10:29:10.499Z,98046.12
2018-05-25T10:31:38.718Z,98048.32
2018-05-25T10:34:06.994Z,98048.06
2018-05-25T10:36:35.246Z,98042.42
2018-05-25T10:39:03.479Z,98049.30
2018-05-25T10:41:32.466Z,98047.22
2018-05-25T10:44:00.767Z,98049.14
2018-05-25T10:46:29.808Z,98040.85
2018-05-25T10:48:58.059Z,98046.27
2018-05-25T10:51:26.320Z,98035.99
2018-05-25T10:53:54.556Z,98038.72
2018-05-25T10:56:24.173Z,98037.39
2018-05-25T10:58:53.175Z,98038.25
2018-05-25T11:01:22.944Z,98034.77
2018-05-25T11:03:51.153Z,98029.86
2018-05-25T11:06:20.211Z,98031.31
2018-05-25T11:08:48.447Z,98032.39
2018-05-25T11:11:16.727Z,98027.95
2018-05-25T11:13:44.963Z,98023.59
2018-05-25T11:16:14.009Z,98021.53
2018-05-25T11:18:42.243Z,98016.90
2018-05-25T11:21:10.513Z,98008.52
2018-05-25T11:23:39.514Z,97999.97
2018-05-25T11:26:07.771Z,98010.89
2018-05-25T11:28:36.042Z,98005.58
2018-05-25T11:31:05.059Z,98007.40
2018-05-25T11:33:33.305Z,98004.65
2018-05-25T11:36:01.572Z,97998.09
2018-05-25T11:38:30.572Z,97996.37
2018-05-25T11:40:58.891Z,98000.90
2018-05-25T11:43:27.127Z,97999.69
2018-05-25T11:45:55.385Z,97999.13
2018-05-25T11:48:24.407Z,97997.58
2018-05-25T11:50:52.645Z,97998.67
2018-05-25T11:53:20.899Z,98001.58
2018-05-25T11:55:49.140Z,98000.69
2018-05-25T11:58:18.931Z,98001.00
2018-05-25T12:00:47.137Z,97989.19
2018-05-25T12:03:16.195Z,97994.25
2018-05-25T12:05:45.242Z,97991.31
2018-05-25T12:08:14.267Z,97993.52
2018-05-25T12:10:42.511Z,97991.45
2018-05-25T12:13:10.774Z,97994.34
2018-05-25T12:15:39.786Z,97982.81
2018-05-25T12:18:08.821Z,97984.28
2018-05-25T12:20:37.065Z,97989.68
2018-05-25T12:23:06.143Z,97990.89
2018-05-25T12:25:34.327Z,97981.87
2018-05-25T12:28:02.601Z,97977.62
2018-05-25T12:30:31.613Z,97985.85
2018-05-25T12:32:59.987Z,97981.02
2018-05-25T12:35:28.338Z,97975.45
2018-05-25T12:37:57.367Z,97978.66
2018-05-25T12:40:25.621Z,97973.44
2018-05-25T12:42:55.396Z,97973.14
2018-05-25T12:45:24.776Z,97978.39
2018-05-25T12:47:53.804Z,97980.83
2018-05-25T12:50:22.051Z,97982.85
2018-05-25T12:52:50.310Z,97981.87
2018-05-25T12:55:18.565Z,97975.02
2018-05-25T12:57:46.879Z,97973.71
2018-05-25T13:00:15.114Z,97976.17
2018-05-25T13:02:43.399Z,97972.30
2018-05-25T13:05:11.656Z,97971.58
2018-05-25T13:07:39.917Z,97969.98
2018-05-25T13:10:08.171Z,97974.80
2018-05-25T13:12:36.443Z,97970.62
2018-05-25T13:15:04.692Z,97965.56
2018-05-25T13:17:32.928Z,97968.95
2018-05-25T13:20:01.223Z,97977.12
2018-05-25T13:22:29.512Z,97973.27
2018-05-25T13:24:57.770Z,97978.59
2018-05-25T13:27:26.807Z,97975.58
2018-05-25T13:29:55.084Z,97978.52
2018-05-25T13:32:23.330Z,97977.93
2018-05-25T13:34:51.579Z,97973.02
2018-05-25T13:37:19.819Z,97978.88
2018-05-25T13:39:48.087Z,97972.33
2018-05-25T13:42:16.318Z,97973.89
2018-05-25T13:44:44.586Z,97972.32
2018-05-25T13:47:12.828Z,97978.55
2018-05-25T13:49:41.892Z,97976.02
2018-05-25T13:52:10.136Z,97977.36
2018-05-25T13:54:39.156Z,97969.53
2018-05-25T13:57:07.387Z,97975.13
2018-05-25T13:59:36.399Z,97974.26
2018-05-25T14:02:05.445Z,97961.45
2018-05-25T14:04:34.473Z,97969.95
2018-05-25T14:07:02.714Z,97966.20
2018-05-25T14:09:30.988Z,97963.36
2018-05-25T14:11:59.230Z,97967.81
2018-05-25T14:14:27.490Z,97967.36
2018-05-25T14:16:55.743Z,97961.27
2018-05-25T14:19:24.007Z,97955.86
2018-05-25T14:21:52.237Z,97959.63
2018-05-25T14:24:20.567Z,97952.77
2018-05-25T14:26:49.579Z,97956.13
2018-05-25T14:29:17.839Z,97966.05
2018-05-25T14:31:46.119Z,97957.45
2018-05-25T14:34:14.385Z,97959.06
2018-05-25T14:36:42.658Z,97958.39
2018-05-25T14:39:11.118Z,97947.94
2018-05-25T14:41:39.387Z,97955.46
2018-05-25T14:44:07.627Z,97951.27
2018-05-25T14:46:35.883Z,97960.44
2018-05-25T14:49:05.265Z,97951.88
2018-05-25T14:51:33.541Z,97951.75
2018-05-25T14:54:01.842Z,97951.80
2018-05-25T14:56:30.021Z,97953.06
2018-05-25T14:58:58.357Z,97946.77
2018-05-25T15:01:26.589Z,97949.19
2018-05-25T15:03:54.846Z,97949.73
2018-05-25T15:06:24.231Z,97958.48
2018-05-25T15:08:52.479Z,97946.38
2018-05-25T15:11:20.737Z,97945.15
2018-05-25T15:13:48.975Z,97946.94
2018-05-25T15:16:17.199Z,97949.82
2018-05-25T15:18:45.445Z,97941.78
2018-05-25T15:21:14.506Z,97946.29
2018-05-25T15:23:43.554Z,97947.62
2018-05-25T15:26:12.567Z,97945.84
2018-05-25T15:28:40.815Z,97954.80
2018-05-25T15:31:09.067Z,97953.98
2018-05-25T15:33:37.327Z,97963.31
2018-05-25T15:36:05.586Z,97960.46
2018-05-25T15:38:33.826Z,97955.41
2018-05-25T15:41:02.084Z,97959.22
2018-05-25T15:43:30.327Z,97954.58
2018-05-25T15:45:59.343Z,97952.05
2018-05-25T15:48:28.362Z,97950.63
2018-05-25T15:50:56.610Z,97954.88
2018-05-25T15:53:24.860Z,97950.15
2018-05-25T15:55:53.130Z,97949.45
2018-05-25T15:58:21.379Z,97953.20
2018-05-25T16:00:50.416Z,97956.58
2018-05-25T16:03:18.647Z,97953.28
2018-05-25T16:05:47.680Z,97958.78
2018-05-25T16:08:15.927Z,97959.54
2018-05-25T16:10:44.972Z,97945.13
2018-05-25T16:13:13.201Z,97949.42
2018-05-25T16:15:41.483Z,97946.06
2018-05-25T16:18:09.726Z,97938.27
2018-05-25T16:20:37.956Z,97939.81
2018-05-25T16:23:06.306Z,97940.54
2018-05-25T16:25:34.593Z,97939.91
2018-05-25T16:28:02.858Z,97945.53
2018-05-25T16:30:31.090Z,97941.56
2018-05-25T16:32:59.338Z,97943.77
2018-05-25T16:35:27.595Z,97937.97
2018-05-25T16:37:55.820Z,97937.31
2018-05-25T16:40:24.865Z,97929.25
2018-05-25T16:42:53.900Z,97929.45
2018-05-25T16:45:22.117Z,97930.20
2018-05-25T16:47:50.435Z,97937.88
2018-05-25T16:50:18.744Z,97934.36
2018-05-25T16:52:46.940Z,97929.56
2018-05-25T16:55:15.919Z,97933.05
2018-05-25T16:57:44.214Z,97927.29
2018-05-25T17:00:12.462Z,97936.55
2018-05-25T17:02:40.719Z,97931.48
2018-05-25T17:05:08.970Z,97933.00
2018-05-25T17:07:37.523Z,97940.51
2018-05-25T17:10:05.778Z,97935.47
2018-05-25T17:12:35.599Z,97938.00
2018-05-25T17:15:03.786Z,97939.26
2018-05-25T17:17:32.053Z,97933.59
2018-05-25T17:20:00.283Z,97933.86
2018-05-25T17:22:28.569Z,97944.55
2018-05-25T17:24:56.775Z,97936.01
2018-05-25T17:27:25.139Z,97940.63
2018-05-25T17:29:54.864Z,97936.25
2018-05-25T17:32:23.099Z,97940.72
2018-05-25T17:34:52.223Z,97937.44
2018-05-25T17:37:21.238Z,97940.55
2018-05-25T17:39:50.330Z,97941.16
2018-05-25T17:42:18.566Z,97943.64
2018-05-25T17:44:48.347Z,97938.17
2018-05-25T17:47:16.667Z,97938.39
2018-05-25T17:49:45.677Z,97938.09
2018-05-25T17:52:15.420Z,97950.66
2018-05-25T17:54:43.810Z,97947.17
2018-05-25T17:57:12.824Z,97945.71
2018-05-25T17:59:41.093Z,97950.84
2018-05-25T18:02:10.057Z,97955.22
2018-05-25T18:04:39.133Z,97948.98
2018-05-25T18:07:07.415Z,97947.97
2018-05-25T18:09:37.196Z,97952.95
2018-05-25T18:12:05.431Z,97948.78
2018-05-25T18:14:33.702Z,97956.48
2018-05-25T18:17:02.731Z,97951.16
2018-05-25T18:19:30.995Z,97947.22
2018-05-25T18:22:00.026Z,97951.56
2018-05-25T18:24:28.287Z,97947.82
2018-05-25T18:26:57.294Z,97950.82
2018-05-25T18:29:26.353Z,97958.69
2018-05-25T18:31:54.587Z,97958.41
2018-05-25T18:34:23.612Z,97963.55
2018-05-25T18:36:51.863Z,97959.19
2018-05-25T18:39:20.124Z,97966.30
2018-05-25T18:41:48.336Z,97968.87
2018-05-25T18:44:17.367Z,97962.83
2018-05-25T18:46:45.639Z,97966.16
2018-05-25T18:49:13.872Z,97965.02
2018-05-25T18:51:42.173Z,97968.36
2018-05-25T18:54:29.088Z,97965.64
2018-05-25T18:56:57.311Z,97966.50
2018-05-25T18:59:25.596Z,97974.39
2018-05-25T19:01:53.862Z,97972.13
2018-05-25T19:04:22.091Z,97979.19
2018-05-25T19:06:50.394Z,97983.61
2018-05-25T19:09:18.627Z,97983.86
2018-05-25T19:11:46.947Z,97990.45
2018-05-25T19:14:15.157Z,97992.45
2018-05-25T19:16:43.455Z,97990.55
2018-05-25T19:19:11.709Z,97988.83
2018-05-25T19:21:39.976Z,97986.73
2018-05-25T19:24:08.217Z,97994.21
2018-05-25T19:26:36.470Z,97995.94
2018-05-25T19:29:04.729Z,97997.73
2018-05-25T19:31:32.978Z,97998.14
2018-05-25T19:34:01.179Z,98007.64
2018-05-25T19:36:29.474Z,98014.00
2018-05-25T19:38:58.524Z,98016.85
2018-05-25T19:41:26.783Z,98019.58
2018-05-25T19:43:55.047Z,98017.48
2018-05-25T19:46:24.083Z,98017.84
2018-05-25T19:48:52.315Z,98025.52
2018-05-25T19:51:20.580Z,98017.50
2018-05-25T19:53:48.824Z,98016.61
2018-05-25T19:56:17.083Z,98021.55
2018-05-25T19:58:45.331Z,98024.81
2018-05-25T20:01:13.591Z,98027.61
2018-05-25T20:03:42.612Z,98027.47
2018-05-25T20:06:11.632Z,98031.96
2018-05-25T20:08:39.838Z,98035.73
2018-05-25T20:11:08.143Z,98028.92
2018-05-25T20:13:36.414Z,98032.91
2018-05-25T20:16:04.680Z,98029.81
2018-05-25T20:18:32.874Z,98029.72
2018-05-25T20:21:01.110Z,98031.27
2018-05-25T20:23:30.171Z,98029.03
2018-05-25T20:25:58.419Z,98031.97
2018-05-25T20:28:26.780Z,98038.12
2018-05-25T20:30:55.725Z,98028.14
2018-05-25T20:33:25.496Z,98031.45
2018-05-25T20:35:53.725Z,98023.83
2018-05-25T20:38:21.991Z,98029.61
2018-05-25T20:40:50.256Z,98026.13
2018-05-25T20:43:18.501Z,98029.37
2018-05-25T20:45:46.739Z,98028.19
2018-05-25T20:48:15.010Z,98033.06
2018-05-25T20:50:43.242Z,98023.83
2018-05-25T20:53:11.508Z,98026.23
2018-05-25T20:55:39.744Z,98018.56
2018-05-25T20:58:07.995Z,98017.88
2018-05-25T21:00:36.244Z,98020.36
2018-05-25T21:03:04.504Z,98018.20
2018-05-25T21:05:32.751Z,98016.52
2018-05-25T21:08:01.002Z,98016.31
2018-05-25T21:10:30.003Z,98008.81
2018-05-25T21:12:58.987Z,98012.94
2018-05-25T21:15:27.262Z,98009.64
2018-05-25T21:17:55.518Z,98011.77
2018-05-25T21:20:23.802Z,98011.37
2018-05-25T21:22:52.059Z,98002.66
2018-05-25T21:25:21.075Z,98006.52
2018-05-25T21:27:50.092Z,98003.67
2018-05-25T21:30:18.336Z,98003.61
2018-05-25T21:32:46.576Z,98004.25
2018-05-25T21:35:14.783Z,98009.97
2018-05-25T21:37:43.083Z,98012.26
2018-05-25T21:40:11.292Z,98016.80
2018-05-25T21:42:39.602Z,98032.11
2018-05-25T21:45:07.835Z,98029.29
2018-05-25T21:47:36.098Z,98022.17
2018-05-25T21:50:05.851Z,98025.81
2018-05-25T21:52:34.092Z,98031.70
2018-05-25T21:55:03.117Z,98033.53
2018-05-25T21:57:31.375Z,98035.22
2018-05-25T21:59:59.631Z,98036.67
2018-05-25T22:02:27.832Z,98037.41
2018-05-25T22:04:57.089Z,98039.94
2018-05-25T22:07:26.120Z,98039.05
2018-05-25T22:09:54.344Z,98045.03
2018-05-25T22:12:23.320Z,98048.00
2018-05-25T22:14:51.547Z,98052.75
2018-05-25T22:17:20.592Z,98048.98
2018-05-25T22:19:48.805Z,98052.53
2018-05-25T22:22:17.081Z,98055.80
2018-05-25T22:24:45.339Z,98056.62
2018-05-25T22:27:14.716Z,98059.72
2018-05-25T22:29:42.979Z,98055.50
2018-05-25T22:32:11.226Z,98058.09
2018-05-25T22:34:40.247Z,98061.28
2018-05-25T22:37:09.251Z,98058.86
2018-05-25T22:39:38.291Z,98054.84
2018-05-25T22:42:05.747Z,98056.03
2018-05-25T22:44:51.903Z,98060.95
2018-05-25T22:47:37.978Z,98064.78
2018-05-25T22:50:24.004Z,98069.77
2018-05-25T22:52:56.883Z,98062.12
2018-05-25T22:55:25.179Z,98054.49
2018-05-25T22:57:53.376Z,98057.78
2018-05-25T23:00:21.663Z,98054.31
2018-05-25T23:02:49.902Z,98045.47
2018-05-25T23:05:18.951Z,98042.92
2018-05-25T23:07:47.182Z,98039.66
2018-05-25T23:10:16.415Z,98039.97
2018-05-25T23:12:44.655Z,98038.59
2018-05-25T23:15:12.955Z,98038.86
2018-05-25T23:17:41.157Z,98037.52
2018-05-25T23:20:09.516Z,98025.95
2018-05-25T23:22:37.755Z,98031.95
2018-05-25T23:25:06.778Z,98027.55
2018-05-25T23:27:35.020Z,98034.94
2018-05-25T23:30:03.274Z,98033.79
2018-05-25T23:32:31.511Z,98034.48
2018-05-25T23:34:59.770Z,98033.14
2018-05-25T23:37:28.024Z,98040.94
2018-05-25T23:39:56.300Z,98042.34
2018-05-25T23:42:25.607Z,98050.06
2018-05-25T23:44:54.635Z,98051.47
2018-05-25T23:47:22.875Z,98044.08
2018-05-25T23:49:51.140Z,98046.80
2018-05-25T23:52:19.383Z,98046.56
2018-05-25T23:54:48.358Z,98044.05
2018-05-25T23:57:16.631Z,98047.31
2018-05-25T23:59:45.663Z,98043.05
